KMGC/MGC METAR and TAF weather

Enter ICAO airport designator
Station Type Date Time Source
KMGC METAR 2020/03/29 15:55 UTC NOAA

KMGC 291555Z AUTO 23017G37KT 10SM BKN023 OVC031 07/06 A2960 RMK AO2


Station Type Date Time Source
KMGC Decoded METAR 2020/03/29 15:55 UTC NOAA

Station name not available
Mar 29, 2020 - 11:55 AM EDT / 2020.03.29 1555 UTC
Wind: from the SW (230 degrees) at 20 MPH (17 KT) gusting to 43 MPH (37 KT):0
Visibility: 10 mile(s):0
Sky conditions: overcast
Temperature: 44 F (7 C)
Dew Point: 42 F (6 C)
Relative Humidity: 93%
Pressure (altimeter): 29.6 in. Hg (1002 hPa)
ob: KMGC 291555Z AUTO 23017G37KT 10SM BKN023 OVC031 07/06 A2960 RMK AO2
cycle: 16

Station Type Date Time Source
KMGC TAF UTC NOAA

Error!

Example: see airport list